sensor_id;sensor_type;location;lat;lon;timestamp;P1;durP1;ratioP1;P2;durP2;ratioP2
10299;SDS011;5195;48.562;9.192;2022-08-25T00:00:10;3.20;;;3.00;;
10299;SDS011;5195;48.562;9.192;2022-08-25T00:27:06;2.80;;;2.70;;
10299;SDS011;5195;48.562;9.192;2022-08-25T00:29:33;3.43;;;3.23;;
10299;SDS011;5195;48.562;9.192;2022-08-25T00:31:59;2.97;;;2.80;;
10299;SDS011;5195;48.562;9.192;2022-08-25T00:34:26;3.40;;;3.20;;
10299;SDS011;5195;48.562;9.192;2022-08-25T00:36:50;3.50;;;2.97;;
10299;SDS011;5195;48.562;9.192;2022-08-25T00:39:16;3.13;;;2.93;;
10299;SDS011;5195;48.562;9.192;2022-08-25T00:41:41;3.30;;;3.20;;
10299;SDS011;5195;48.562;9.192;2022-08-25T00:44:10;3.27;;;3.07;;
10299;SDS011;5195;48.562;9.192;2022-08-25T00:46:36;3.10;;;3.00;;
10299;SDS011;5195;48.562;9.192;2022-08-25T00:49:08;2.97;;;2.87;;
10299;SDS011;5195;48.562;9.192;2022-08-25T00:51:43;3.13;;;3.00;;
10299;SDS011;5195;48.562;9.192;2022-08-25T00:54:04;3.33;;;3.12;;
10299;SDS011;5195;48.562;9.192;2022-08-25T00:56:29;4.10;;;3.70;;
10299;SDS011;5195;48.562;9.192;2022-08-25T00:58:55;3.27;;;3.10;;
10299;SDS011;5195;48.562;9.192;2022-08-25T01:01:20;3.17;;;3.07;;
10299;SDS011;5195;48.562;9.192;2022-08-25T01:03:46;3.30;;;3.20;;
10299;SDS011;5195;48.562;9.192;2022-08-25T01:06:11;3.30;;;3.07;;
10299;SDS011;5195;48.562;9.192;2022-08-25T01:08:37;3.30;;;3.00;;
10299;SDS011;5195;48.562;9.192;2022-08-25T01:11:03;3.90;;;3.60;;
10299;SDS011;5195;48.562;9.192;2022-08-25T01:13:30;3.53;;;3.35;;
10299;SDS011;5195;48.562;9.192;2022-08-25T01:15:54;3.50;;;3.30;;
10299;SDS011;5195;48.562;9.192;2022-08-25T01:18:19;3.70;;;3.50;;
10299;SDS011;5195;48.562;9.192;2022-08-25T01:20:49;3.50;;;3.30;;
10299;SDS011;5195;48.562;9.192;2022-08-25T01:23:13;3.50;;;3.30;;
10299;SDS011;5195;48.562;9.192;2022-08-25T01:50:20;3.50;;;3.30;;
10299;SDS011;5195;48.562;9.192;2022-08-25T01:55:42;4.17;;;3.40;;
10299;SDS011;5195;48.562;9.192;2022-08-25T02:12:08;3.60;;;3.50;;
10299;SDS011;5195;48.562;9.192;2022-08-25T02:14:34;3.10;;;3.00;;
10299;SDS011;5195;48.562;9.192;2022-08-25T02:17:00;3.90;;;3.57;;
10299;SDS011;5195;48.562;9.192;2022-08-25T02:19:26;4.40;;;4.10;;
10299;SDS011;5195;48.562;9.192;2022-08-25T02:21:51;4.70;;;4.27;;
10299;SDS011;5195;48.562;9.192;2022-08-25T02:24:17;4.20;;;3.90;;
10299;SDS011;5195;48.562;9.192;2022-08-25T02:26:43;4.53;;;4.28;;
10299;SDS011;5195;48.562;9.192;2022-08-25T02:29:09;5.10;;;4.80;;
10299;SDS011;5195;48.562;9.192;2022-08-25T02:31:35;4.20;;;4.00;;
10299;SDS011;5195;48.562;9.192;2022-08-25T02:34:01;4.50;;;4.20;;
10299;SDS011;5195;48.562;9.192;2022-08-25T02:36:26;4.82;;;4.53;;
10299;SDS011;5195;48.562;9.192;2022-08-25T02:38:52;4.40;;;4.20;;
10299;SDS011;5195;48.562;9.192;2022-08-25T02:41:19;4.50;;;4.22;;
10299;SDS011;5195;48.562;9.192;2022-08-25T02:43:45;4.60;;;4.30;;
10299;SDS011;5195;48.562;9.192;2022-08-25T02:46:10;4.72;;;4.43;;
10299;SDS011;5195;48.562;9.192;2022-08-25T02:48:35;4.30;;;4.10;;
10299;SDS011;5195;48.562;9.192;2022-08-25T02:51:01;4.53;;;4.32;;
10299;SDS011;5195;48.562;9.192;2022-08-25T02:53:27;4.50;;;4.22;;
10299;SDS011;5195;48.562;9.192;2022-08-25T02:55:53;3.50;;;3.40;;
10299;SDS011;5195;48.562;9.192;2022-08-25T02:58:18;4.20;;;4.00;;
10299;SDS011;5195;48.562;9.192;2022-08-25T03:00:44;4.77;;;4.40;;
10299;SDS011;5195;48.562;9.192;2022-08-25T03:03:09;3.73;;;3.63;;
10299;SDS011;5195;48.562;9.192;2022-08-25T03:05:35;4.62;;;4.32;;
10299;SDS011;5195;48.562;9.192;2022-08-25T03:08:00;4.50;;;4.30;;
10299;SDS011;5195;48.562;9.192;2022-08-25T03:10:26;4.57;;;4.30;;
10299;SDS011;5195;48.562;9.192;2022-08-25T03:12:52;4.50;;;4.30;;
10299;SDS011;5195;48.562;9.192;2022-08-25T03:15:17;4.67;;;4.37;;
10299;SDS011;5195;48.562;9.192;2022-08-25T03:17:43;4.70;;;4.40;;
10299;SDS011;5195;48.562;9.192;2022-08-25T03:20:08;4.03;;;3.83;;
10299;SDS011;5195;48.562;9.192;2022-08-25T03:22:34;4.62;;;4.43;;
10299;SDS011;5195;48.562;9.192;2022-08-25T03:25:00;4.50;;;4.30;;
10299;SDS011;5195;48.562;9.192;2022-08-25T03:27:46;4.20;;;4.00;;
10299;SDS011;5195;48.562;9.192;2022-08-25T03:30:13;4.20;;;3.70;;
10299;SDS011;5195;48.562;9.192;2022-08-25T03:32:39;4.27;;;3.97;;
10299;SDS011;5195;48.562;9.192;2022-08-25T03:35:04;3.90;;;3.70;;
10299;SDS011;5195;48.562;9.192;2022-08-25T03:37:30;4.60;;;4.30;;
10299;SDS011;5195;48.562;9.192;2022-08-25T03:39:56;4.70;;;4.40;;
10299;SDS011;5195;48.562;9.192;2022-08-25T03:42:21;4.60;;;4.33;;
10299;SDS011;5195;48.562;9.192;2022-08-25T03:44:47;4.77;;;4.53;;
10299;SDS011;5195;48.562;9.192;2022-08-25T03:47:12;4.20;;;4.00;;
10299;SDS011;5195;48.562;9.192;2022-08-25T03:49:38;4.40;;;4.17;;
10299;SDS011;5195;48.562;9.192;2022-08-25T03:52:03;4.27;;;3.93;;
10299;SDS011;5195;48.562;9.192;2022-08-25T03:54:29;4.30;;;4.10;;
10299;SDS011;5195;48.562;9.192;2022-08-25T03:56:55;4.77;;;4.57;;
10299;SDS011;5195;48.562;9.192;2022-08-25T03:59:21;4.80;;;4.57;;
10299;SDS011;5195;48.562;9.192;2022-08-25T04:01:49;4.10;;;3.90;;
10299;SDS011;5195;48.562;9.192;2022-08-25T04:04:14;4.50;;;4.20;;
10299;SDS011;5195;48.562;9.192;2022-08-25T04:06:40;4.50;;;4.30;;
10299;SDS011;5195;48.562;9.192;2022-08-25T04:09:06;4.00;;;3.70;;
10299;SDS011;5195;48.562;9.192;2022-08-25T04:11:31;4.28;;;4.00;;
10299;SDS011;5195;48.562;9.192;2022-08-25T04:13:57;4.43;;;4.20;;
10299;SDS011;5195;48.562;9.192;2022-08-25T04:16:23;4.90;;;4.60;;
10299;SDS011;5195;48.562;9.192;2022-08-25T04:18:48;4.83;;;4.60;;
10299;SDS011;5195;48.562;9.192;2022-08-25T04:21:16;4.70;;;4.10;;
10299;SDS011;5195;48.562;9.192;2022-08-25T04:23:41;4.10;;;3.90;;
10299;SDS011;5195;48.562;9.192;2022-08-25T04:26:13;4.60;;;4.40;;
10299;SDS011;5195;48.562;9.192;2022-08-25T04:28:37;4.03;;;3.83;;
10299;SDS011;5195;48.562;9.192;2022-08-25T04:31:05;4.53;;;4.30;;
10299;SDS011;5195;48.562;9.192;2022-08-25T04:33:29;4.17;;;3.97;;
10299;SDS011;5195;48.562;9.192;2022-08-25T04:35:56;4.27;;;4.00;;
10299;SDS011;5195;48.562;9.192;2022-08-25T04:38:22;4.50;;;4.30;;
10299;SDS011;5195;48.562;9.192;2022-08-25T04:40:54;4.40;;;4.20;;
10299;SDS011;5195;48.562;9.192;2022-08-25T04:43:14;5.03;;;4.73;;
10299;SDS011;5195;48.562;9.192;2022-08-25T04:45:40;4.70;;;4.40;;
10299;SDS011;5195;48.562;9.192;2022-08-25T04:48:05;4.95;;;4.70;;
10299;SDS011;5195;48.562;9.192;2022-08-25T04:50:36;4.70;;;4.40;;
10299;SDS011;5195;48.562;9.192;2022-08-25T04:52:59;4.63;;;4.33;;
10299;SDS011;5195;48.562;9.192;2022-08-25T04:55:24;4.28;;;4.07;;
10299;SDS011;5195;48.562;9.192;2022-08-25T04:57:53;4.70;;;4.40;;
10299;SDS011;5195;48.562;9.192;2022-08-25T05:00:18;5.00;;;4.60;;
10299;SDS011;5195;48.562;9.192;2022-08-25T05:02:44;4.95;;;4.75;;
10299;SDS011;5195;48.562;9.192;2022-08-25T05:05:10;5.12;;;4.72;;
10299;SDS011;5195;48.562;9.192;2022-08-25T05:07:36;5.30;;;4.90;;
10299;SDS011;5195;48.562;9.192;2022-08-25T05:10:01;5.10;;;4.90;;
10299;SDS011;5195;48.562;9.192;2022-08-25T05:12:28;5.20;;;4.90;;
10299;SDS011;5195;48.562;9.192;2022-08-25T05:14:53;5.50;;;5.00;;
10299;SDS011;5195;48.562;9.192;2022-08-25T05:17:20;5.07;;;4.77;;
10299;SDS011;5195;48.562;9.192;2022-08-25T05:19:47;4.67;;;4.37;;
10299;SDS011;5195;48.562;9.192;2022-08-25T05:22:12;4.77;;;4.43;;
10299;SDS011;5195;48.562;9.192;2022-08-25T05:24:38;5.07;;;4.87;;
10299;SDS011;5195;48.562;9.192;2022-08-25T05:27:03;4.83;;;4.57;;
10299;SDS011;5195;48.562;9.192;2022-08-25T05:29:29;4.57;;;4.37;;
10299;SDS011;5195;48.562;9.192;2022-08-25T05:31:54;5.33;;;4.77;;
10299;SDS011;5195;48.562;9.192;2022-08-25T05:34:20;4.67;;;4.37;;
10299;SDS011;5195;48.562;9.192;2022-08-25T05:36:46;5.37;;;5.07;;
10299;SDS011;5195;48.562;9.192;2022-08-25T05:39:11;5.78;;;5.32;;
10299;SDS011;5195;48.562;9.192;2022-08-25T05:41:37;4.90;;;4.60;;
10299;SDS011;5195;48.562;9.192;2022-08-25T05:44:02;4.75;;;4.45;;
10299;SDS011;5195;48.562;9.192;2022-08-25T05:46:28;3.93;;;3.67;;
10299;SDS011;5195;48.562;9.192;2022-08-25T05:48:53;4.60;;;4.30;;
10299;SDS011;5195;48.562;9.192;2022-08-25T05:51:19;4.70;;;4.40;;
10299;SDS011;5195;48.562;9.192;2022-08-25T05:53:46;4.90;;;4.60;;
10299;SDS011;5195;48.562;9.192;2022-08-25T05:56:10;4.50;;;4.20;;
10299;SDS011;5195;48.562;9.192;2022-08-25T05:58:36;4.00;;;3.80;;
10299;SDS011;5195;48.562;9.192;2022-08-25T06:01:02;4.20;;;3.92;;
10299;SDS011;5195;48.562;9.192;2022-08-25T06:03:27;4.13;;;3.93;;
10299;SDS011;5195;48.562;9.192;2022-08-25T06:05:52;5.30;;;4.90;;
10299;SDS011;5195;48.562;9.192;2022-08-25T06:08:18;5.57;;;5.17;;
10299;SDS011;5195;48.562;9.192;2022-08-25T06:10:44;4.30;;;4.10;;
10299;SDS011;5195;48.562;9.192;2022-08-25T06:13:09;4.67;;;4.40;;
10299;SDS011;5195;48.562;9.192;2022-08-25T06:15:35;3.90;;;3.70;;
10299;SDS011;5195;48.562;9.192;2022-08-25T06:18:01;4.50;;;4.30;;
10299;SDS011;5195;48.562;9.192;2022-08-25T06:20:27;5.13;;;4.57;;
10299;SDS011;5195;48.562;9.192;2022-08-25T06:22:54;4.53;;;4.27;;
10299;SDS011;5195;48.562;9.192;2022-08-25T06:25:20;4.07;;;3.80;;
10299;SDS011;5195;48.562;9.192;2022-08-25T06:27:45;4.13;;;3.90;;
10299;SDS011;5195;48.562;9.192;2022-08-25T06:30:12;4.07;;;3.87;;
10299;SDS011;5195;48.562;9.192;2022-08-25T06:32:38;4.30;;;4.00;;
10299;SDS011;5195;48.562;9.192;2022-08-25T06:35:03;4.62;;;4.32;;
10299;SDS011;5195;48.562;9.192;2022-08-25T06:37:29;4.10;;;3.90;;
10299;SDS011;5195;48.562;9.192;2022-08-25T06:39:55;4.33;;;4.00;;
10299;SDS011;5195;48.562;9.192;2022-08-25T06:42:20;4.50;;;4.30;;
10299;SDS011;5195;48.562;9.192;2022-08-25T06:44:46;4.60;;;4.30;;
10299;SDS011;5195;48.562;9.192;2022-08-25T06:47:14;4.10;;;3.87;;
10299;SDS011;5195;48.562;9.192;2022-08-25T06:49:39;4.50;;;4.20;;
10299;SDS011;5195;48.562;9.192;2022-08-25T06:52:05;4.50;;;4.10;;
10299;SDS011;5195;48.562;9.192;2022-08-25T06:54:30;4.20;;;4.00;;
10299;SDS011;5195;48.562;9.192;2022-08-25T06:56:57;4.53;;;4.20;;
10299;SDS011;5195;48.562;9.192;2022-08-25T06:59:23;4.18;;;3.80;;
10299;SDS011;5195;48.562;9.192;2022-08-25T07:01:50;3.63;;;3.33;;
10299;SDS011;5195;48.562;9.192;2022-08-25T07:04:16;3.83;;;3.62;;
10299;SDS011;5195;48.562;9.192;2022-08-25T07:06:44;4.27;;;3.97;;
10299;SDS011;5195;48.562;9.192;2022-08-25T07:09:10;4.30;;;3.90;;
10299;SDS011;5195;48.562;9.192;2022-08-25T07:11:36;5.05;;;4.55;;
10299;SDS011;5195;48.562;9.192;2022-08-25T07:14:02;5.07;;;4.27;;
10299;SDS011;5195;48.562;9.192;2022-08-25T07:16:28;3.93;;;3.70;;
10299;SDS011;5195;48.562;9.192;2022-08-25T07:18:53;4.90;;;4.60;;
10299;SDS011;5195;48.562;9.192;2022-08-25T07:21:18;4.77;;;3.90;;
10299;SDS011;5195;48.562;9.192;2022-08-25T07:23:45;4.50;;;4.20;;
10299;SDS011;5195;48.562;9.192;2022-08-25T07:26:11;5.00;;;4.70;;
10299;SDS011;5195;48.562;9.192;2022-08-25T07:28:38;5.20;;;4.70;;
10299;SDS011;5195;48.562;9.192;2022-08-25T07:31:04;5.60;;;5.30;;
10299;SDS011;5195;48.562;9.192;2022-08-25T07:33:29;6.32;;;5.87;;
10299;SDS011;5195;48.562;9.192;2022-08-25T07:35:55;5.27;;;4.87;;
10299;SDS011;5195;48.562;9.192;2022-08-25T07:38:20;5.40;;;5.00;;
10299;SDS011;5195;48.562;9.192;2022-08-25T07:40:46;6.12;;;5.78;;
10299;SDS011;5195;48.562;9.192;2022-08-25T07:43:11;6.45;;;6.05;;
10299;SDS011;5195;48.562;9.192;2022-08-25T07:45:38;6.63;;;6.23;;
10299;SDS011;5195;48.562;9.192;2022-08-25T07:48:04;6.50;;;6.10;;
10299;SDS011;5195;48.562;9.192;2022-08-25T07:50:28;6.87;;;6.47;;
10299;SDS011;5195;48.562;9.192;2022-08-25T07:52:54;6.03;;;5.53;;
10299;SDS011;5195;48.562;9.192;2022-08-25T07:57:57;6.40;;;6.00;;
10299;SDS011;5195;48.562;9.192;2022-08-25T08:00:33;6.80;;;6.20;;
10299;SDS011;5195;48.562;9.192;2022-08-25T08:03:08;6.80;;;6.30;;
10299;SDS011;5195;48.562;9.192;2022-08-25T08:05:43;6.03;;;5.73;;
10299;SDS011;5195;48.562;9.192;2022-08-25T08:08:19;6.07;;;5.60;;
10299;SDS011;5195;48.562;9.192;2022-08-25T08:10:55;7.77;;;7.17;;
10299;SDS011;5195;48.562;9.192;2022-08-25T08:13:32;5.97;;;5.67;;
10299;SDS011;5195;48.562;9.192;2022-08-25T08:16:10;5.83;;;5.53;;
10299;SDS011;5195;48.562;9.192;2022-08-25T08:18:46;6.17;;;5.87;;
10299;SDS011;5195;48.562;9.192;2022-08-25T08:21:23;6.60;;;6.10;;
10299;SDS011;5195;48.562;9.192;2022-08-25T08:23:59;6.10;;;5.70;;
10299;SDS011;5195;48.562;9.192;2022-08-25T08:26:35;6.12;;;5.82;;
10299;SDS011;5195;48.562;9.192;2022-08-25T08:29:11;6.00;;;5.70;;
10299;SDS011;5195;48.562;9.192;2022-08-25T08:31:46;5.73;;;5.33;;
10299;SDS011;5195;48.562;9.192;2022-08-25T08:34:22;6.40;;;6.00;;
10299;SDS011;5195;48.562;9.192;2022-08-25T08:36:58;5.83;;;5.43;;
10299;SDS011;5195;48.562;9.192;2022-08-25T08:39:35;5.47;;;5.17;;
10299;SDS011;5195;48.562;9.192;2022-08-25T08:51:02;6.32;;;5.82;;
10299;SDS011;5195;48.562;9.192;2022-08-25T08:53:53;6.10;;;5.70;;
10299;SDS011;5195;48.562;9.192;2022-08-25T08:56:31;6.18;;;5.75;;
10299;SDS011;5195;48.562;9.192;2022-08-25T08:59:12;6.53;;;6.03;;
10299;SDS011;5195;48.562;9.192;2022-08-25T09:01:54;6.70;;;6.10;;
10299;SDS011;5195;48.562;9.192;2022-08-25T09:04:32;6.82;;;6.12;;
10299;SDS011;5195;48.562;9.192;2022-08-25T09:07:11;6.20;;;5.80;;
10299;SDS011;5195;48.562;9.192;2022-08-25T09:09:45;6.17;;;5.67;;
10299;SDS011;5195;48.562;9.192;2022-08-25T09:12:28;6.37;;;5.80;;
10299;SDS011;5195;48.562;9.192;2022-08-25T09:26:36;6.30;;;5.93;;
10299;SDS011;5195;48.562;9.192;2022-08-25T09:29:14;5.80;;;5.50;;
10299;SDS011;5195;48.562;9.192;2022-08-25T09:31:48;5.83;;;5.47;;
10299;SDS011;5195;48.562;9.192;2022-08-25T09:34:26;7.37;;;6.77;;
10299;SDS011;5195;48.562;9.192;2022-08-25T09:36:59;5.83;;;5.53;;
10299;SDS011;5195;48.562;9.192;2022-08-25T09:39:35;6.33;;;5.33;;
10299;SDS011;5195;48.562;9.192;2022-08-25T09:42:10;6.10;;;5.70;;
10299;SDS011;5195;48.562;9.192;2022-08-25T09:44:47;5.67;;;4.93;;
10299;SDS011;5195;48.562;9.192;2022-08-25T09:47:24;5.73;;;5.43;;
10299;SDS011;5195;48.562;9.192;2022-08-25T09:50:00;5.97;;;5.57;;
10299;SDS011;5195;48.562;9.192;2022-08-25T09:52:38;6.03;;;5.53;;
10299;SDS011;5195;48.562;9.192;2022-08-25T09:55:20;5.67;;;5.37;;
10299;SDS011;5195;48.562;9.192;2022-08-25T09:57:54;5.30;;;5.00;;
10299;SDS011;5195;48.562;9.192;2022-08-25T10:00:32;5.40;;;5.10;;
10299;SDS011;5195;48.562;9.192;2022-08-25T10:03:09;5.70;;;5.30;;
10299;SDS011;5195;48.562;9.192;2022-08-25T10:11:12;5.33;;;4.80;;
10299;SDS011;5195;48.562;9.192;2022-08-25T10:13:50;5.13;;;4.83;;
10299;SDS011;5195;48.562;9.192;2022-08-25T10:16:32;4.83;;;4.53;;
10299;SDS011;5195;48.562;9.192;2022-08-25T10:19:09;4.57;;;4.37;;
10299;SDS011;5195;48.562;9.192;2022-08-25T10:24:45;4.93;;;4.63;;
10299;SDS011;5195;48.562;9.192;2022-08-25T10:30:19;3.90;;;3.70;;
10299;SDS011;5195;48.562;9.192;2022-08-25T10:36:05;4.00;;;3.80;;
10299;SDS011;5195;48.562;9.192;2022-08-25T10:38:43;4.07;;;3.87;;
10299;SDS011;5195;48.562;9.192;2022-08-25T10:41:22;4.00;;;3.80;;
10299;SDS011;5195;48.562;9.192;2022-08-25T10:44:23;4.13;;;3.93;;
10299;SDS011;5195;48.562;9.192;2022-08-25T10:56:03;3.80;;;3.60;;
10299;SDS011;5195;48.562;9.192;2022-08-25T11:01:55;3.50;;;3.40;;
10299;SDS011;5195;48.562;9.192;2022-08-25T11:04:37;3.47;;;3.27;;
10299;SDS011;5195;48.562;9.192;2022-08-25T11:07:27;3.83;;;3.57;;
10299;SDS011;5195;48.562;9.192;2022-08-25T11:10:07;3.60;;;3.30;;
10299;SDS011;5195;48.562;9.192;2022-08-25T11:12:48;3.80;;;3.53;;
10299;SDS011;5195;48.562;9.192;2022-08-25T11:15:30;3.70;;;3.50;;
10299;SDS011;5195;48.562;9.192;2022-08-25T11:18:08;3.60;;;3.50;;
10299;SDS011;5195;48.562;9.192;2022-08-25T11:21:00;5.87;;;3.23;;
10299;SDS011;5195;48.562;9.192;2022-08-25T11:23:37;3.63;;;3.43;;
10299;SDS011;5195;48.562;9.192;2022-08-25T11:26:13;3.77;;;3.57;;
10299;SDS011;5195;48.562;9.192;2022-08-25T11:29:05;4.00;;;3.60;;
10299;SDS011;5195;48.562;9.192;2022-08-25T11:31:48;3.20;;;3.10;;
10299;SDS011;5195;48.562;9.192;2022-08-25T11:34:28;3.80;;;3.60;;
10299;SDS011;5195;48.562;9.192;2022-08-25T11:37:06;3.42;;;3.12;;
10299;SDS011;5195;48.562;9.192;2022-08-25T11:42:48;3.20;;;3.00;;
10299;SDS011;5195;48.562;9.192;2022-08-25T11:45:50;3.00;;;2.87;;
10299;SDS011;5195;48.562;9.192;2022-08-25T11:51:31;3.40;;;3.30;;
10299;SDS011;5195;48.562;9.192;2022-08-25T11:54:14;3.57;;;3.37;;
10299;SDS011;5195;48.562;9.192;2022-08-25T11:57:02;3.70;;;3.40;;
10299;SDS011;5195;48.562;9.192;2022-08-25T12:13:36;3.30;;;3.20;;
10299;SDS011;5195;48.562;9.192;2022-08-25T12:16:05;3.40;;;3.10;;
10299;SDS011;5195;48.562;9.192;2022-08-25T12:18:41;3.00;;;2.90;;
10299;SDS011;5195;48.562;9.192;2022-08-25T12:21:27;3.50;;;3.30;;
10299;SDS011;5195;48.562;9.192;2022-08-25T12:29:27;3.00;;;2.90;;
10299;SDS011;5195;48.562;9.192;2022-08-25T12:32:14;3.07;;;2.83;;
10299;SDS011;5195;48.562;9.192;2022-08-25T12:35:06;3.20;;;3.00;;
10299;SDS011;5195;48.562;9.192;2022-08-25T12:38:02;3.50;;;3.27;;
10299;SDS011;5195;48.562;9.192;2022-08-25T12:46:30;3.03;;;2.93;;
10299;SDS011;5195;48.562;9.192;2022-08-25T12:53:51;3.00;;;2.85;;
10299;SDS011;5195;48.562;9.192;2022-08-25T13:08:16;3.78;;;3.20;;
10299;SDS011;5195;48.562;9.192;2022-08-25T13:11:11;3.73;;;3.37;;
10299;SDS011;5195;48.562;9.192;2022-08-25T13:16:52;3.22;;;3.12;;
10299;SDS011;5195;48.562;9.192;2022-08-25T13:19:27;3.50;;;3.30;;
10299;SDS011;5195;48.562;9.192;2022-08-25T13:22:08;3.20;;;2.93;;
10299;SDS011;5195;48.562;9.192;2022-08-25T13:24:44;3.07;;;2.87;;
10299;SDS011;5195;48.562;9.192;2022-08-25T13:27:21;3.23;;;3.03;;
10299;SDS011;5195;48.562;9.192;2022-08-25T13:29:57;3.13;;;2.93;;
10299;SDS011;5195;48.562;9.192;2022-08-25T13:32:33;3.27;;;3.07;;
10299;SDS011;5195;48.562;9.192;2022-08-25T13:35:19;3.20;;;3.10;;
10299;SDS011;5195;48.562;9.192;2022-08-25T13:37:51;3.00;;;2.90;;
10299;SDS011;5195;48.562;9.192;2022-08-25T13:40:27;3.07;;;2.97;;
10299;SDS011;5195;48.562;9.192;2022-08-25T13:43:03;3.00;;;2.87;;
10299;SDS011;5195;48.562;9.192;2022-08-25T13:45:44;3.43;;;3.23;;
10299;SDS011;5195;48.562;9.192;2022-08-25T13:48:19;3.37;;;3.10;;
10299;SDS011;5195;48.562;9.192;2022-08-25T13:50:50;3.22;;;3.03;;
10299;SDS011;5195;48.562;9.192;2022-08-25T13:53:25;2.80;;;2.70;;
10299;SDS011;5195;48.562;9.192;2022-08-25T13:56:01;4.10;;;2.97;;
10299;SDS011;5195;48.562;9.192;2022-08-25T13:58:37;3.03;;;2.90;;
10299;SDS011;5195;48.562;9.192;2022-08-25T14:01:17;4.77;;;2.90;;
10299;SDS011;5195;48.562;9.192;2022-08-25T14:03:52;2.90;;;2.80;;
10299;SDS011;5195;48.562;9.192;2022-08-25T14:06:27;2.57;;;2.47;;
10299;SDS011;5195;48.562;9.192;2022-08-25T14:09:04;3.30;;;3.10;;
10299;SDS011;5195;48.562;9.192;2022-08-25T14:11:54;3.03;;;2.83;;
10299;SDS011;5195;48.562;9.192;2022-08-25T14:17:05;2.92;;;2.70;;
10299;SDS011;5195;48.562;9.192;2022-08-25T14:19:44;3.15;;;2.95;;
10299;SDS011;5195;48.562;9.192;2022-08-25T14:22:19;3.20;;;3.00;;
10299;SDS011;5195;48.562;9.192;2022-08-25T14:24:55;3.03;;;2.93;;
10299;SDS011;5195;48.562;9.192;2022-08-25T14:27:30;3.07;;;2.87;;
10299;SDS011;5195;48.562;9.192;2022-08-25T14:30:06;3.05;;;2.95;;
10299;SDS011;5195;48.562;9.192;2022-08-25T14:32:42;2.57;;;2.47;;
10299;SDS011;5195;48.562;9.192;2022-08-25T14:35:19;2.83;;;2.63;;
10299;SDS011;5195;48.562;9.192;2022-08-25T14:37:56;3.70;;;2.80;;
10299;SDS011;5195;48.562;9.192;2022-08-25T14:40:31;3.10;;;2.90;;
10299;SDS011;5195;48.562;9.192;2022-08-25T14:43:08;2.67;;;2.57;;
10299;SDS011;5195;48.562;9.192;2022-08-25T14:45:44;2.80;;;2.60;;
10299;SDS011;5195;48.562;9.192;2022-08-25T14:48:22;3.33;;;3.07;;
10299;SDS011;5195;48.562;9.192;2022-08-25T14:50:56;2.80;;;2.70;;
10299;SDS011;5195;48.562;9.192;2022-08-25T14:53:31;3.60;;;2.60;;
10299;SDS011;5195;48.562;9.192;2022-08-25T14:56:07;3.17;;;2.92;;
10299;SDS011;5195;48.562;9.192;2022-08-25T14:58:42;2.90;;;2.80;;
10299;SDS011;5195;48.562;9.192;2022-08-25T15:01:18;2.73;;;2.63;;
10299;SDS011;5195;48.562;9.192;2022-08-25T15:03:55;2.70;;;2.60;;
10299;SDS011;5195;48.562;9.192;2022-08-25T15:06:29;2.80;;;2.60;;
10299;SDS011;5195;48.562;9.192;2022-08-25T15:09:05;2.90;;;2.60;;
10299;SDS011;5195;48.562;9.192;2022-08-25T15:11:48;2.80;;;2.60;;
10299;SDS011;5195;48.562;9.192;2022-08-25T15:14:23;3.07;;;2.97;;
10299;SDS011;5195;48.562;9.192;2022-08-25T15:16:59;2.67;;;2.57;;
10299;SDS011;5195;48.562;9.192;2022-08-25T15:19:34;3.07;;;2.73;;
10299;SDS011;5195;48.562;9.192;2022-08-25T15:22:12;2.90;;;2.80;;
10299;SDS011;5195;48.562;9.192;2022-08-25T15:24:48;3.20;;;2.87;;
10299;SDS011;5195;48.562;9.192;2022-08-25T15:27:23;3.20;;;3.00;;
10299;SDS011;5195;48.562;9.192;2022-08-25T15:30:00;3.07;;;2.97;;
10299;SDS011;5195;48.562;9.192;2022-08-25T15:32:36;3.37;;;2.90;;
10299;SDS011;5195;48.562;9.192;2022-08-25T15:35:11;4.20;;;3.43;;
10299;SDS011;5195;48.562;9.192;2022-08-25T15:37:48;2.90;;;2.70;;
10299;SDS011;5195;48.562;9.192;2022-08-25T15:40:24;3.23;;;3.07;;
10299;SDS011;5195;48.562;9.192;2022-08-25T15:42:59;3.47;;;3.17;;
10299;SDS011;5195;48.562;9.192;2022-08-25T15:45:35;3.23;;;2.93;;
10299;SDS011;5195;48.562;9.192;2022-08-25T15:48:11;2.83;;;2.63;;
10299;SDS011;5195;48.562;9.192;2022-08-25T15:50:47;3.00;;;2.80;;
10299;SDS011;5195;48.562;9.192;2022-08-25T15:53:23;2.90;;;2.70;;
10299;SDS011;5195;48.562;9.192;2022-08-25T15:55:59;2.80;;;2.70;;
10299;SDS011;5195;48.562;9.192;2022-08-25T15:58:34;2.97;;;2.87;;
10299;SDS011;5195;48.562;9.192;2022-08-25T16:01:12;3.25;;;2.80;;
10299;SDS011;5195;48.562;9.192;2022-08-25T16:03:48;3.10;;;2.77;;
10299;SDS011;5195;48.562;9.192;2022-08-25T16:06:24;3.33;;;2.60;;
10299;SDS011;5195;48.562;9.192;2022-08-25T16:08:59;3.33;;;3.23;;
10299;SDS011;5195;48.562;9.192;2022-08-25T16:11:35;3.23;;;3.10;;
10299;SDS011;5195;48.562;9.192;2022-08-25T16:14:10;3.07;;;2.93;;
10299;SDS011;5195;48.562;9.192;2022-08-25T16:16:46;3.40;;;3.13;;
10299;SDS011;5195;48.562;9.192;2022-08-25T16:19:21;3.03;;;2.93;;
10299;SDS011;5195;48.562;9.192;2022-08-25T16:21:58;3.33;;;3.13;;
10299;SDS011;5195;48.562;9.192;2022-08-25T16:24:33;3.83;;;2.97;;
10299;SDS011;5195;48.562;9.192;2022-08-25T16:27:08;2.93;;;2.73;;
10299;SDS011;5195;48.562;9.192;2022-08-25T16:29:44;3.20;;;3.00;;
10299;SDS011;5195;48.562;9.192;2022-08-25T16:32:19;2.90;;;2.80;;
10299;SDS011;5195;48.562;9.192;2022-08-25T16:34:56;3.20;;;3.10;;
10299;SDS011;5195;48.562;9.192;2022-08-25T16:40:16;3.40;;;3.10;;
10299;SDS011;5195;48.562;9.192;2022-08-25T16:42:55;3.35;;;3.15;;
10299;SDS011;5195;48.562;9.192;2022-08-25T16:45:30;3.17;;;3.07;;
10299;SDS011;5195;48.562;9.192;2022-08-25T16:48:07;3.40;;;3.10;;
10299;SDS011;5195;48.562;9.192;2022-08-25T16:50:43;5.87;;;3.10;;
10299;SDS011;5195;48.562;9.192;2022-08-25T16:53:18;3.40;;;3.20;;
10299;SDS011;5195;48.562;9.192;2022-08-25T16:56:14;3.90;;;3.22;;
10299;SDS011;5195;48.562;9.192;2022-08-25T16:58:53;3.20;;;3.10;;
10299;SDS011;5195;48.562;9.192;2022-08-25T17:01:29;3.30;;;3.20;;
10299;SDS011;5195;48.562;9.192;2022-08-25T17:04:06;3.10;;;3.00;;
10299;SDS011;5195;48.562;9.192;2022-08-25T17:06:41;3.00;;;2.90;;
10299;SDS011;5195;48.562;9.192;2022-08-25T17:09:17;6.03;;;3.20;;
10299;SDS011;5195;48.562;9.192;2022-08-25T17:11:53;3.57;;;3.37;;
10299;SDS011;5195;48.562;9.192;2022-08-25T17:14:29;4.93;;;3.60;;
10299;SDS011;5195;48.562;9.192;2022-08-25T17:17:05;3.57;;;3.37;;
10299;SDS011;5195;48.562;9.192;2022-08-25T17:19:40;3.60;;;3.30;;
10299;SDS011;5195;48.562;9.192;2022-08-25T17:22:16;3.47;;;3.27;;
10299;SDS011;5195;48.562;9.192;2022-08-25T17:24:52;3.50;;;3.20;;
10299;SDS011;5195;48.562;9.192;2022-08-25T17:27:27;3.43;;;3.20;;
10299;SDS011;5195;48.562;9.192;2022-08-25T17:30:03;4.17;;;3.17;;
10299;SDS011;5195;48.562;9.192;2022-08-25T17:32:39;3.63;;;3.43;;
10299;SDS011;5195;48.562;9.192;2022-08-25T17:35:14;3.20;;;3.10;;
10299;SDS011;5195;48.562;9.192;2022-08-25T17:37:50;3.63;;;3.40;;
10299;SDS011;5195;48.562;9.192;2022-08-25T17:40:25;3.20;;;3.10;;
10299;SDS011;5195;48.562;9.192;2022-08-25T17:43:02;3.77;;;3.50;;
10299;SDS011;5195;48.562;9.192;2022-08-25T17:45:38;3.27;;;3.07;;
10299;SDS011;5195;48.562;9.192;2022-08-25T17:48:13;3.33;;;3.03;;
10299;SDS011;5195;48.562;9.192;2022-08-25T17:50:50;3.60;;;3.30;;
10299;SDS011;5195;48.562;9.192;2022-08-25T17:53:25;3.40;;;3.30;;
10299;SDS011;5195;48.562;9.192;2022-08-25T17:56:13;3.70;;;3.40;;
10299;SDS011;5195;48.562;9.192;2022-08-25T17:58:44;3.50;;;3.30;;
10299;SDS011;5195;48.562;9.192;2022-08-25T18:01:21;4.00;;;3.80;;
10299;SDS011;5195;48.562;9.192;2022-08-25T18:03:58;3.73;;;3.53;;
10299;SDS011;5195;48.562;9.192;2022-08-25T18:06:34;3.50;;;3.30;;
10299;SDS011;5195;48.562;9.192;2022-08-25T18:09:09;3.70;;;3.47;;
10299;SDS011;5195;48.562;9.192;2022-08-25T18:15:20;4.40;;;3.53;;
10299;SDS011;5195;48.562;9.192;2022-08-25T18:17:58;3.80;;;3.50;;
10299;SDS011;5195;48.562;9.192;2022-08-25T18:20:33;3.60;;;3.40;;
10299;SDS011;5195;48.562;9.192;2022-08-25T18:23:09;3.92;;;3.67;;
10299;SDS011;5195;48.562;9.192;2022-08-25T18:25:45;5.65;;;5.28;;